createdAt,value
2022-08-28T00:01:48.946Z,56.99
2022-08-28T00:04:18.435Z,56.74
2022-08-28T00:06:48.588Z,57.03
2022-08-28T00:09:17.982Z,56.34
2022-08-28T00:11:47.201Z,56.98
2022-08-28T00:14:19.295Z,56.96
2022-08-28T00:16:50.700Z,56.15
2022-08-28T00:19:22.892Z,56.86
2022-08-28T00:21:53.021Z,57.16
2022-08-28T00:24:22.285Z,56.60
2022-08-28T00:27:08.963Z,57.08
2022-08-28T00:29:38.590Z,57.02
2022-08-28T00:32:09.663Z,56.70
2022-08-28T00:34:38.948Z,56.99
2022-08-28T00:37:08.476Z,56.55
2022-08-28T00:39:37.764Z,55.91
2022-08-28T00:42:07.637Z,56.28
2022-08-28T00:44:38.431Z,56.11
2022-08-28T00:47:10.172Z,56.17
2022-08-28T00:49:48.835Z,56.22
2022-08-28T00:52:18.867Z,55.82
2022-08-28T00:54:58.796Z,55.69
2022-08-28T00:57:33.101Z,55.87
2022-08-28T01:00:02.521Z,55.45
2022-08-28T01:02:33.281Z,55.58
2022-08-28T01:05:02.869Z,55.29
2022-08-28T01:07:32.176Z,55.19
2022-08-28T01:10:01.520Z,54.59
2022-08-28T01:12:34.037Z,54.58
2022-08-28T01:15:09.423Z,54.88
2022-08-28T01:17:44.101Z,54.62
2022-08-28T01:20:19.389Z,54.65
2022-08-28T01:22:59.299Z,54.44
2022-08-28T01:25:34.877Z,54.57
2022-08-28T01:28:14.838Z,55.23
2022-08-28T01:30:48.002Z,54.46
2022-08-28T01:33:17.554Z,54.87
2022-08-28T01:35:48.986Z,54.58
2022-08-28T01:38:20.243Z,54.42
2022-08-28T01:40:57.433Z,54.52
2022-08-28T01:43:28.985Z,53.96
2022-08-28T01:46:02.388Z,54.29
2022-08-28T01:48:37.176Z,54.76
2022-08-28T01:51:07.712Z,54.02
2022-08-28T01:53:37.254Z,53.63
2022-08-28T01:56:16.110Z,53.67
2022-08-28T01:58:48.107Z,52.95
2022-08-28T02:01:20.603Z,54.02
2022-08-28T02:03:53.076Z,53.76
2022-08-28T02:06:22.348Z,53.54
2022-08-28T02:08:55.719Z,53.18
2022-08-28T02:11:26.967Z,53.35
2022-08-28T02:13:56.447Z,53.67
2022-08-28T02:16:26.079Z,52.86
2022-08-28T02:18:55.342Z,53.77
2022-08-28T02:21:25.278Z,53.47
2022-08-28T02:23:55.219Z,53.53
2022-08-28T02:26:26.109Z,54.07
2022-08-28T02:28:55.251Z,53.12
2022-08-28T02:31:24.394Z,53.44
2022-08-28T02:33:53.622Z,53.34
2022-08-28T02:36:25.892Z,53.48
2022-08-28T02:38:57.741Z,54.27
2022-08-28T02:41:28.803Z,53.77
2022-08-28T02:43:57.944Z,53.69
2022-08-28T02:46:27.528Z,53.47
2022-08-28T02:48:56.927Z,53.75
2022-08-28T02:51:26.298Z,53.60
2022-08-28T02:53:55.503Z,54.29
2022-08-28T02:56:24.720Z,54.64
2022-08-28T02:58:56.600Z,54.82
2022-08-28T03:01:26.101Z,54.46
2022-08-28T03:03:55.512Z,54.77
2022-08-28T03:06:24.650Z,55.10
2022-08-28T03:08:53.925Z,54.21
2022-08-28T03:11:23.477Z,55.38
2022-08-28T03:13:54.092Z,55.38
2022-08-28T03:16:25.215Z,55.41
2022-08-28T03:18:54.450Z,55.87
2022-08-28T03:21:23.868Z,54.90
2022-08-28T03:23:52.051Z,55.53
2022-08-28T03:26:24.114Z,56.16
2022-08-28T03:28:57.696Z,55.19
2022-08-28T03:31:33.857Z,55.84
2022-08-28T03:34:03.476Z,55.24
2022-08-28T03:36:33.327Z,55.35
2022-08-28T03:39:06.248Z,56.47
2022-08-28T03:41:37.046Z,55.45
2022-08-28T03:44:07.956Z,56.23
2022-08-28T03:46:37.798Z,55.84
2022-08-28T03:49:07.357Z,55.81
2022-08-28T03:51:36.952Z,55.74
2022-08-28T03:54:06.958Z,56.02
2022-08-28T03:56:36.123Z,56.89
2022-08-28T03:59:08.161Z,56.54
2022-08-28T04:01:38.382Z,56.42
2022-08-28T04:04:07.818Z,56.08
2022-08-28T04:06:37.182Z,56.41
2022-08-28T04:09:08.046Z,56.72
2022-08-28T04:11:42.771Z,56.82
2022-08-28T04:14:13.786Z,56.62
2022-08-28T04:16:43.425Z,56.88
2022-08-28T04:19:12.766Z,57.78
2022-08-28T04:21:41.983Z,57.06
2022-08-28T04:24:13.358Z,58.00
2022-08-28T04:26:42.909Z,58.20
2022-08-28T04:29:13.799Z,57.86
2022-08-28T04:31:43.681Z,57.88
2022-08-28T04:34:13.443Z,58.15
2022-08-28T04:36:42.701Z,58.02
2022-08-28T04:39:11.836Z,58.69
2022-08-28T04:41:41.422Z,57.85
2022-08-28T04:44:12.094Z,58.77
2022-08-28T04:46:44.370Z,58.44
2022-08-28T04:49:17.934Z,58.74
2022-08-28T04:51:50.283Z,59.26
2022-08-28T04:54:19.501Z,57.98
2022-08-28T04:56:48.659Z,59.26
2022-08-28T04:59:19.461Z,58.64
2022-08-28T05:01:48.732Z,58.89
2022-08-28T05:04:19.815Z,59.26
2022-08-28T05:06:49.581Z,59.30
2022-08-28T05:09:21.436Z,59.46
2022-08-28T05:11:53.555Z,58.53
2022-08-28T05:14:24.290Z,59.22
2022-08-28T05:16:55.656Z,58.71
2022-08-28T05:19:26.414Z,58.69
2022-08-28T05:21:56.072Z,59.40
2022-08-28T05:24:25.441Z,58.88
2022-08-28T05:26:54.655Z,59.25
2022-08-28T05:29:25.267Z,59.16
2022-08-28T05:31:55.365Z,58.98
2022-08-28T05:34:25.002Z,59.10
2022-08-28T05:36:54.244Z,59.90
2022-08-28T05:39:23.437Z,59.70
2022-08-28T05:41:55.767Z,59.59
2022-08-28T05:44:26.524Z,59.54
2022-08-28T05:46:57.144Z,60.75
2022-08-28T05:49:28.295Z,60.53
2022-08-28T05:51:57.644Z,60.17
2022-08-28T05:54:29.052Z,61.09
2022-08-28T05:56:58.368Z,60.65
2022-08-28T05:59:28.929Z,61.00
2022-08-28T06:02:02.227Z,61.35
2022-08-28T06:04:33.548Z,61.04
2022-08-28T06:07:02.765Z,61.63
2022-08-28T06:09:32.550Z,61.61
2022-08-28T06:12:03.138Z,61.49
2022-08-28T06:14:34.503Z,60.91
2022-08-28T06:17:04.998Z,61.16
2022-08-28T06:19:41.057Z,61.11
2022-08-28T06:22:14.851Z,61.99
2022-08-28T06:24:44.033Z,61.74
2022-08-28T06:27:13.199Z,62.51
2022-08-28T06:29:44.769Z,62.36
2022-08-28T06:32:14.309Z,62.36
2022-08-28T06:34:43.625Z,62.54
2022-08-28T06:37:13.049Z,62.33
2022-08-28T06:39:42.471Z,62.31
2022-08-28T06:42:11.581Z,62.39
2022-08-28T06:44:42.191Z,62.56
2022-08-28T06:47:11.690Z,62.31
2022-08-28T06:49:41.556Z,61.97
2022-08-28T06:52:10.739Z,62.66
2022-08-28T06:54:39.930Z,62.13
2022-08-28T06:57:11.116Z,62.29
2022-08-28T06:59:40.431Z,63.15
2022-08-28T07:02:11.176Z,63.35
2022-08-28T07:04:40.488Z,63.14
2022-08-28T07:07:10.629Z,63.86
2022-08-28T07:09:59.800Z,63.46
2022-08-28T07:12:28.964Z,64.40
2022-08-28T07:14:58.314Z,63.80
2022-08-28T07:17:28.860Z,63.77
2022-08-28T07:19:58.475Z,64.16
2022-08-28T07:22:27.882Z,64.51
2022-08-28T07:24:58.282Z,64.00
2022-08-28T07:27:27.693Z,64.56
2022-08-28T07:29:56.912Z,64.43
2022-08-28T07:32:26.573Z,63.79
2022-08-28T07:34:57.262Z,64.19
2022-08-28T07:37:27.595Z,63.99
2022-08-28T07:39:56.864Z,64.21
2022-08-28T07:42:43.488Z,64.07
2022-08-28T07:45:13.067Z,63.85
2022-08-28T07:47:42.334Z,64.51
2022-08-28T07:50:13.274Z,64.46
2022-08-28T07:52:43.009Z,64.37
2022-08-28T07:55:12.156Z,64.54
2022-08-28T07:57:43.288Z,64.69
2022-08-28T08:00:14.495Z,64.26
2022-08-28T08:02:43.707Z,64.55
2022-08-28T08:05:14.540Z,64.31
2022-08-28T08:07:43.972Z,64.44
2022-08-28T08:10:19.889Z,64.51
2022-08-28T08:12:50.038Z,64.55
2022-08-28T08:15:21.906Z,64.04
2022-08-28T08:17:51.933Z,64.17
2022-08-28T08:20:22.678Z,64.63
2022-08-28T08:22:52.086Z,64.28
2022-08-28T08:25:21.473Z,64.29
2022-08-28T08:27:55.116Z,63.98
2022-08-28T08:30:24.281Z,63.48
2022-08-28T08:32:53.678Z,63.09
2022-08-28T08:35:25.326Z,63.03
2022-08-28T08:37:54.460Z,62.04
2022-08-28T08:40:23.704Z,62.15
2022-08-28T08:42:57.220Z,61.88
2022-08-28T08:45:29.527Z,61.95
2022-08-28T08:47:58.858Z,61.71
2022-08-28T08:50:32.642Z,61.13
2022-08-28T08:53:24.426Z,60.37
2022-08-28T08:55:55.810Z,60.69
2022-08-28T08:58:32.889Z,60.83
2022-08-28T09:01:10.366Z,60.06
2022-08-28T09:03:56.786Z,59.47
2022-08-28T09:06:41.134Z,59.70
2022-08-28T09:09:19.769Z,59.93
2022-08-28T09:11:56.454Z,58.78
2022-08-28T09:14:38.306Z,58.82
2022-08-28T09:17:09.677Z,58.99
2022-08-28T09:19:38.993Z,58.88
2022-08-28T09:22:09.813Z,58.38
2022-08-28T09:24:42.294Z,56.45
2022-08-28T09:27:25.485Z,55.03
2022-08-28T09:29:58.913Z,54.77
2022-08-28T09:32:35.138Z,53.76
2022-08-28T09:35:14.163Z,52.59
2022-08-28T09:37:45.611Z,51.05
2022-08-28T09:40:26.236Z,49.50
2022-08-28T09:43:30.641Z,49.33
2022-08-28T09:46:03.558Z,48.52
2022-08-28T09:48:37.080Z,48.16
2022-08-28T09:51:08.557Z,49.38
2022-08-28T09:53:54.905Z,47.76
2022-08-28T09:56:29.672Z,48.58
2022-08-28T09:59:03.646Z,47.47
2022-08-28T10:01:49.069Z,47.56
2022-08-28T10:04:44.650Z,47.98
2022-08-28T10:07:24.558Z,48.30
2022-08-28T10:10:11.050Z,47.75
2022-08-28T10:12:50.835Z,48.05
2022-08-28T10:15:27.702Z,48.70
2022-08-28T10:18:34.141Z,48.63
2022-08-28T10:21:14.910Z,48.71
2022-08-28T10:24:05.409Z,48.72
2022-08-28T10:26:45.861Z,48.93
2022-08-28T10:29:32.687Z,48.99
2022-08-28T10:32:24.845Z,49.50
2022-08-28T10:35:05.032Z,48.97
2022-08-28T10:37:52.142Z,48.46
2022-08-28T10:40:29.630Z,47.71
2022-08-28T10:43:06.074Z,48.62
2022-08-28T10:45:36.237Z,49.15
2022-08-28T10:48:12.272Z,49.00
2022-08-28T10:50:47.179Z,49.66
2022-08-28T10:53:21.857Z,50.25
2022-08-28T10:55:57.723Z,50.64
2022-08-28T10:58:30.135Z,50.91
2022-08-28T11:01:03.280Z,50.70
2022-08-28T11:03:41.907Z,50.95
2022-08-28T11:06:22.603Z,52.24
2022-08-28T11:08:56.909Z,51.76
2022-08-28T11:11:45.349Z,51.84
2022-08-28T11:14:29.991Z,52.99
2022-08-28T11:17:03.445Z,53.05
2022-08-28T11:20:01.992Z,53.27
2022-08-28T11:22:38.615Z,52.48
2022-08-28T11:25:19.715Z,52.59
2022-08-28T11:28:19.850Z,52.54
2022-08-28T11:31:16.359Z,52.99
2022-08-28T11:34:01.274Z,52.22
2022-08-28T11:37:03.629Z,52.41
2022-08-28T11:39:33.137Z,53.01
2022-08-28T11:42:37.406Z,52.77
2022-08-28T11:45:08.123Z,52.43
2022-08-28T11:47:56.608Z,52.24
2022-08-28T11:50:32.347Z,52.42
2022-08-28T11:53:39.778Z,51.51
2022-08-28T11:56:37.213Z,50.58
2022-08-28T11:59:37.302Z,50.60
2022-08-28T12:02:50.751Z,48.01
2022-08-28T12:05:54.380Z,48.24
2022-08-28T12:09:10.171Z,47.71
2022-08-28T12:12:02.819Z,48.83
2022-08-28T12:15:09.404Z,48.31
2022-08-28T12:17:53.724Z,47.29
2022-08-28T12:21:02.246Z,47.66
2022-08-28T12:23:40.039Z,47.61
2022-08-28T12:26:23.990Z,48.07
2022-08-28T12:28:58.277Z,48.49
2022-08-28T12:32:18.914Z,47.53
2022-08-28T12:35:19.437Z,47.56
2022-08-28T12:38:03.798Z,46.65
2022-08-28T12:40:50.551Z,47.63
2022-08-28T12:43:34.614Z,47.03
2022-08-28T12:46:19.131Z,47.21
2022-08-28T12:48:52.798Z,48.04
2022-08-28T12:51:24.691Z,47.72
2022-08-28T12:53:58.502Z,48.16
2022-08-28T12:56:32.653Z,47.24
2022-08-28T12:59:27.696Z,47.30
2022-08-28T13:02:04.090Z,46.77
2022-08-28T13:04:37.565Z,47.10
2022-08-28T13:07:12.494Z,47.27
2022-08-28T13:09:51.588Z,48.22
2022-08-28T13:12:37.845Z,48.80
2022-08-28T13:15:14.561Z,48.44
2022-08-28T13:17:55.041Z,49.33
2022-08-28T13:20:30.619Z,49.38
2022-08-28T13:23:01.690Z,49.09
2022-08-28T13:25:36.962Z,49.93
2022-08-28T13:28:17.827Z,50.30
2022-08-28T13:30:59.248Z,50.35
2022-08-28T13:33:28.862Z,50.33
2022-08-28T13:35:58.053Z,50.53
2022-08-28T13:38:27.450Z,50.39
2022-08-28T13:41:03.810Z,50.50
2022-08-28T13:43:47.468Z,50.60
2022-08-28T13:46:18.328Z,51.14
2022-08-28T13:48:47.773Z,50.52
2022-08-28T13:51:20.721Z,51.01
2022-08-28T13:53:50.544Z,51.01
2022-08-28T13:56:23.181Z,50.80
2022-08-28T13:58:57.818Z,50.66
2022-08-28T14:01:48.486Z,50.64
2022-08-28T14:04:17.094Z,50.44
2022-08-28T14:06:46.301Z,50.25
2022-08-28T14:09:17.736Z,50.57
2022-08-28T14:11:49.925Z,48.62
2022-08-28T14:14:20.066Z,49.33
2022-08-28T14:16:52.650Z,48.92
2022-08-28T14:19:22.650Z,49.24
2022-08-28T14:21:51.892Z,48.77
2022-08-28T14:24:21.318Z,47.61
2022-08-28T14:26:55.658Z,47.49
2022-08-28T14:29:24.913Z,46.51
2022-08-28T14:31:54.108Z,45.47
2022-08-28T14:34:24.517Z,44.64
2022-08-28T14:36:56.160Z,45.04
2022-08-28T14:39:27.935Z,45.36
2022-08-28T14:41:59.131Z,43.86
2022-08-28T14:44:28.862Z,43.41
2022-08-28T14:46:58.190Z,43.28
2022-08-28T14:49:28.992Z,43.42
2022-08-28T14:51:58.380Z,44.68
2022-08-28T14:54:27.855Z,44.48
2022-08-28T14:56:58.633Z,44.46
2022-08-28T14:59:30.532Z,44.13
2022-08-28T15:02:02.400Z,44.07
2022-08-28T15:04:37.816Z,43.92
2022-08-28T15:07:13.153Z,44.31
2022-08-28T15:09:44.111Z,44.10
2022-08-28T15:12:14.873Z,43.09
2022-08-28T15:14:54.947Z,43.17
2022-08-28T15:17:33.443Z,42.97
2022-08-28T15:20:05.650Z,42.57
2022-08-28T15:22:34.981Z,42.52
2022-08-28T15:25:06.913Z,41.95
2022-08-28T15:27:37.984Z,42.37
2022-08-28T15:30:08.635Z,42.63
2022-08-28T15:32:37.973Z,42.53
2022-08-28T15:35:08.597Z,41.82
2022-08-28T15:37:37.852Z,41.80
2022-08-28T15:40:26.425Z,43.07
2022-08-28T15:42:57.780Z,43.34
2022-08-28T15:45:27.530Z,43.39
2022-08-28T15:47:58.553Z,44.02
2022-08-28T15:50:27.805Z,44.78
2022-08-28T15:52:57.085Z,45.53
2022-08-28T15:55:28.597Z,46.47
2022-08-28T15:57:59.279Z,46.03
2022-08-28T16:00:29.088Z,46.61
2022-08-28T16:03:01.000Z,46.83
2022-08-28T16:05:40.660Z,46.64
2022-08-28T16:08:11.641Z,46.22
2022-08-28T16:10:41.187Z,46.34
2022-08-28T16:13:11.890Z,47.04
2022-08-28T16:15:41.310Z,47.01
2022-08-28T16:18:10.723Z,47.56
2022-08-28T16:20:41.097Z,47.06
2022-08-28T16:23:11.998Z,46.75
2022-08-28T16:25:42.010Z,46.03
2022-08-28T16:28:12.787Z,45.16
2022-08-28T16:30:43.875Z,45.65
2022-08-28T16:33:14.049Z,46.07
2022-08-28T16:35:49.511Z,46.00
2022-08-28T16:38:25.175Z,46.91
2022-08-28T16:40:54.442Z,47.40
2022-08-28T16:43:25.695Z,48.30
2022-08-28T16:45:54.914Z,48.34
2022-08-28T16:48:24.076Z,48.66
2022-08-28T16:50:53.350Z,49.66
2022-08-28T16:53:26.997Z,49.28
2022-08-28T16:55:56.611Z,49.56
2022-08-28T16:58:27.940Z,49.62
2022-08-28T17:00:57.387Z,50.34
2022-08-28T17:03:26.895Z,50.51
2022-08-28T17:05:58.210Z,50.17
2022-08-28T17:08:27.710Z,50.24
2022-08-28T17:10:58.712Z,49.75
2022-08-28T17:13:29.384Z,48.36
2022-08-28T17:15:58.752Z,47.81
2022-08-28T17:18:27.998Z,47.78
2022-08-28T17:21:14.838Z,47.52
2022-08-28T17:23:44.275Z,47.11
2022-08-28T17:26:14.570Z,47.38
2022-08-28T17:28:46.498Z,46.88
2022-08-28T17:31:16.005Z,46.58
2022-08-28T17:33:47.143Z,46.47
2022-08-28T17:36:32.386Z,46.85
2022-08-28T17:39:03.189Z,46.97
2022-08-28T17:41:33.614Z,47.43
2022-08-28T17:44:05.676Z,47.99
2022-08-28T17:46:37.962Z,47.88
2022-08-28T17:49:09.225Z,48.14
2022-08-28T17:51:42.369Z,49.01
2022-08-28T17:54:13.997Z,49.82
2022-08-28T17:56:43.900Z,49.43
2022-08-28T17:59:15.366Z,49.87
2022-08-28T18:01:46.585Z,49.89
2022-08-28T18:04:23.269Z,50.38
2022-08-28T18:06:54.955Z,49.64
2022-08-28T18:09:25.352Z,50.10
2022-08-28T18:11:55.085Z,49.94
2022-08-28T18:14:26.493Z,49.94
2022-08-28T18:16:56.691Z,50.12
2022-08-28T18:19:26.198Z,50.03
2022-08-28T18:21:55.902Z,50.48
2022-08-28T18:24:26.029Z,51.22
2022-08-28T18:26:57.370Z,51.60
2022-08-28T18:29:28.114Z,52.34
2022-08-28T18:31:57.548Z,52.35
2022-08-28T18:34:26.677Z,52.35
2022-08-28T18:36:55.848Z,52.52
2022-08-28T18:39:29.665Z,53.24
2022-08-28T18:41:59.893Z,53.72
2022-08-28T18:44:32.025Z,54.56
2022-08-28T18:47:01.411Z,54.49
2022-08-28T18:49:30.683Z,54.88
2022-08-28T18:51:59.907Z,55.29
2022-08-28T18:54:29.667Z,55.90
2022-08-28T18:57:04.194Z,55.93
2022-08-28T18:59:35.427Z,56.79
2022-08-28T19:02:04.752Z,57.48
2022-08-28T19:04:33.883Z,58.45
2022-08-28T19:07:03.203Z,58.73
2022-08-28T19:09:34.884Z,58.65
2022-08-28T19:12:05.921Z,59.47
2022-08-28T19:14:37.295Z,59.82
2022-08-28T19:17:06.725Z,59.50
2022-08-28T19:19:36.080Z,60.50
2022-08-28T19:22:06.660Z,60.40
2022-08-28T19:24:35.881Z,61.15
2022-08-28T19:27:05.273Z,60.96
2022-08-28T19:29:35.925Z,61.42
2022-08-28T19:32:06.345Z,62.29
2022-08-28T19:34:36.148Z,62.13
2022-08-28T19:37:06.433Z,61.95
2022-08-28T19:39:35.761Z,62.39
2022-08-28T19:42:05.192Z,62.10
2022-08-28T19:44:39.429Z,62.84
2022-08-28T19:47:09.087Z,63.18
2022-08-28T19:49:41.751Z,63.46
2022-08-28T19:52:11.234Z,63.48
2022-08-28T19:54:42.447Z,64.00
2022-08-28T19:57:11.813Z,64.57
2022-08-28T19:59:42.750Z,63.77
2022-08-28T20:02:14.538Z,64.38
2022-08-28T20:04:43.915Z,64.54
2022-08-28T20:07:13.312Z,64.94
2022-08-28T20:09:42.691Z,65.00
2022-08-28T20:12:11.999Z,65.02
2022-08-28T20:14:42.749Z,65.49
2022-08-28T20:17:15.313Z,65.60
2022-08-28T20:19:45.578Z,65.75
2022-08-28T20:22:15.370Z,66.09
2022-08-28T20:24:45.308Z,66.31
2022-08-28T20:27:14.644Z,66.66
2022-08-28T20:29:45.291Z,66.44
2022-08-28T20:32:14.550Z,66.62
2022-08-28T20:34:44.605Z,66.91
2022-08-28T20:37:17.639Z,67.68
2022-08-28T20:39:47.396Z,68.63
2022-08-28T20:42:16.693Z,68.22
2022-08-28T20:44:47.654Z,68.39
2022-08-28T20:47:17.079Z,68.49
2022-08-28T20:49:47.710Z,68.66
2022-08-28T20:52:17.039Z,68.32
2022-08-28T20:54:46.315Z,68.77
2022-08-28T20:57:21.183Z,68.78
2022-08-28T20:59:54.094Z,69.27
2022-08-28T21:02:26.289Z,69.61
2022-08-28T21:04:56.737Z,70.51
2022-08-28T21:07:27.151Z,71.03
2022-08-28T21:10:05.456Z,71.16
2022-08-28T21:12:36.380Z,71.09
2022-08-28T21:15:09.705Z,71.80
2022-08-28T21:17:39.050Z,71.63
2022-08-28T21:20:12.803Z,71.65
2022-08-28T21:22:42.786Z,71.94
2022-08-28T21:25:13.548Z,72.42
2022-08-28T21:27:44.220Z,72.32
2022-08-28T21:30:19.194Z,72.57
2022-08-28T21:32:50.036Z,72.77
2022-08-28T21:35:21.002Z,72.59
2022-08-28T21:37:51.206Z,72.72
2022-08-28T21:40:20.733Z,72.28
2022-08-28T21:42:50.055Z,72.50
2022-08-28T21:45:22.531Z,72.86
2022-08-28T21:47:51.850Z,72.29
2022-08-28T21:50:21.204Z,72.71
2022-08-28T21:52:50.338Z,72.58
2022-08-28T21:55:19.508Z,72.45
2022-08-28T21:57:48.998Z,73.44
2022-08-28T22:00:23.280Z,72.90
2022-08-28T22:02:52.694Z,73.21
2022-08-28T22:05:22.127Z,73.23
2022-08-28T22:07:51.369Z,73.33
2022-08-28T22:10:20.570Z,74.25
2022-08-28T22:12:49.829Z,74.21
2022-08-28T22:15:20.533Z,74.06
2022-08-28T22:17:49.737Z,73.72
2022-08-28T22:20:19.298Z,74.08
2022-08-28T22:23:06.141Z,74.52
2022-08-28T22:25:40.904Z,74.24
2022-08-28T22:28:11.821Z,74.16
2022-08-28T22:30:42.516Z,74.55
2022-08-28T22:33:12.201Z,74.43
2022-08-28T22:35:41.395Z,74.06
2022-08-28T22:38:11.233Z,73.76
2022-08-28T22:40:40.559Z,74.63
2022-08-28T22:43:09.923Z,74.50
2022-08-28T22:45:39.616Z,74.28
2022-08-28T22:48:11.647Z,74.43
2022-08-28T22:50:42.353Z,74.31
2022-08-28T22:53:12.819Z,74.65
2022-08-28T22:55:43.892Z,74.13
2022-08-28T22:58:16.934Z,74.85
2022-08-28T23:00:46.407Z,74.69
2022-08-28T23:03:17.254Z,74.82
2022-08-28T23:05:46.822Z,74.75
2022-08-28T23:08:16.109Z,74.69
2022-08-28T23:10:58.413Z,74.31
2022-08-28T23:13:28.877Z,74.66
2022-08-28T23:15:58.585Z,74.31
2022-08-28T23:18:41.602Z,74.43
2022-08-28T23:21:20.582Z,74.41
2022-08-28T23:23:49.854Z,74.57
2022-08-28T23:26:20.326Z,74.52
2022-08-28T23:28:49.905Z,74.79
2022-08-28T23:31:19.313Z,74.55
2022-08-28T23:33:50.249Z,74.90
2022-08-28T23:36:19.591Z,74.47
2022-08-28T23:38:48.811Z,74.54
2022-08-28T23:41:18.511Z,74.55
2022-08-28T23:43:53.416Z,74.16
2022-08-28T23:46:26.232Z,74.53
2022-08-28T23:48:57.070Z,75.12
2022-08-28T23:51:26.608Z,75.17
2022-08-28T23:53:58.913Z,75.44
2022-08-28T23:56:28.391Z,74.80
2022-08-28T23:58:57.627Z,74.96
